createdAt,value
2022-09-23T00:01:14.738Z,13.83
2022-09-23T00:03:45.498Z,14.77
2022-09-23T00:06:24.117Z,12.60
2022-09-23T00:08:52.504Z,13.27
2022-09-23T00:11:26.050Z,9.63
2022-09-23T00:13:57.153Z,14.27
2022-09-23T00:16:34.261Z,11.53
2022-09-23T00:19:03.153Z,11.80
2022-09-23T00:21:30.086Z,8.37
2022-09-23T00:23:57.281Z,10.73
2022-09-23T00:26:24.741Z,12.07
2022-09-23T00:28:51.895Z,11.37
2022-09-23T00:31:26.032Z,11.67
2022-09-23T00:33:59.284Z,10.80
2022-09-23T00:36:27.677Z,11.17
2022-09-23T00:38:55.641Z,11.03
2022-09-23T00:41:22.716Z,10.97
2022-09-23T00:43:53.922Z,11.10
2022-09-23T00:46:36.231Z,11.07
2022-09-23T00:49:11.109Z,10.93
2022-09-23T00:51:44.933Z,10.60
2022-09-23T00:54:11.999Z,8.83
2022-09-23T00:56:40.008Z,9.67
2022-09-23T00:59:09.719Z,15.03
2022-09-23T01:01:38.606Z,9.33
2022-09-23T01:04:07.891Z,11.17
2022-09-23T01:06:34.840Z,11.43
2022-09-23T01:09:01.991Z,9.73
2022-09-23T01:11:57.704Z,7.30
2022-09-23T01:14:54.908Z,9.00
2022-09-23T01:17:47.872Z,7.73
2022-09-23T01:20:56.246Z,7.53
2022-09-23T01:24:07.952Z,7.50
2022-09-23T01:27:14.403Z,7.93
2022-09-23T01:30:33.037Z,8.40
2022-09-23T01:33:28.542Z,10.53
2022-09-23T01:36:50.861Z,8.70
2022-09-23T01:39:36.887Z,8.37
2022-09-23T01:42:23.725Z,9.40
2022-09-23T01:44:58.488Z,8.90
2022-09-23T01:47:37.631Z,8.57
2022-09-23T01:50:36.948Z,7.37
2022-09-23T01:53:17.254Z,11.07
2022-09-23T01:55:57.010Z,8.57
2022-09-23T01:58:53.854Z,9.20
2022-09-23T02:01:39.916Z,7.77
2022-09-23T02:04:32.703Z,10.67
2022-09-23T02:07:21.143Z,9.40
2022-09-23T02:09:59.361Z,10.27
2022-09-23T02:12:30.592Z,12.67
2022-09-23T02:15:06.337Z,9.77
2022-09-23T02:17:52.246Z,11.07
2022-09-23T02:20:39.659Z,10.77
2022-09-23T02:23:15.334Z,6.83
2022-09-23T02:26:00.628Z,9.57
2022-09-23T02:28:48.246Z,8.30
2022-09-23T02:31:20.985Z,9.70
2022-09-23T02:34:31.041Z,8.70
2022-09-23T02:37:22.894Z,7.63
2022-09-23T02:40:23.511Z,9.60
2022-09-23T02:43:06.489Z,10.27
2022-09-23T02:45:34.095Z,9.07
2022-09-23T02:48:09.570Z,10.00
2022-09-23T02:50:38.321Z,11.17
2022-09-23T02:53:06.207Z,13.43
2022-09-23T02:55:33.336Z,10.77
2022-09-23T02:58:02.643Z,8.83
2022-09-23T03:00:59.053Z,11.07
2022-09-23T03:03:48.475Z,9.43
2022-09-23T03:06:42.504Z,10.90
2022-09-23T03:09:23.026Z,8.27
2022-09-23T03:12:03.369Z,8.50
2022-09-23T03:14:58.837Z,7.90
2022-09-23T03:17:45.003Z,10.03
2022-09-23T03:20:25.393Z,10.80
2022-09-23T03:22:57.710Z,10.13
2022-09-23T03:25:28.676Z,10.57
2022-09-23T03:27:59.464Z,10.47
2022-09-23T03:30:27.160Z,10.53
2022-09-23T03:32:57.303Z,11.43
2022-09-23T03:35:27.556Z,12.90
2022-09-23T03:38:06.347Z,13.23
2022-09-23T03:40:43.041Z,11.13
2022-09-23T03:43:14.208Z,10.17
2022-09-23T03:45:42.639Z,14.00
2022-09-23T03:48:09.775Z,11.57
2022-09-23T03:50:37.004Z,10.43
2022-09-23T03:53:03.916Z,12.10
2022-09-23T03:55:32.192Z,10.30
2022-09-23T03:58:00.268Z,14.33
2022-09-23T04:00:27.804Z,12.70
2022-09-23T04:02:54.714Z,10.87
2022-09-23T04:05:21.723Z,11.73
2022-09-23T04:07:49.232Z,14.67
2022-09-23T04:10:16.250Z,13.10
2022-09-23T04:12:43.299Z,10.80
2022-09-23T04:15:10.700Z,12.77
2022-09-23T04:17:37.597Z,13.10
2022-09-23T04:20:04.972Z,11.17
2022-09-23T04:22:35.068Z,10.23
2022-09-23T04:25:02.521Z,10.83
2022-09-23T04:27:31.290Z,12.57
2022-09-23T04:30:01.193Z,12.57
2022-09-23T04:32:28.183Z,12.00
2022-09-23T04:34:55.113Z,11.23
2022-09-23T04:37:22.031Z,12.80
2022-09-23T04:39:48.990Z,11.10
2022-09-23T04:42:15.939Z,14.97
2022-09-23T04:44:43.039Z,12.97
2022-09-23T04:47:09.962Z,12.83
2022-09-23T04:49:36.877Z,12.10
2022-09-23T04:52:05.736Z,15.10
2022-09-23T04:54:33.000Z,13.83
2022-09-23T04:56:59.949Z,13.40
2022-09-23T04:59:26.842Z,12.60
2022-09-23T05:01:54.809Z,12.33
2022-09-23T05:04:21.745Z,11.77
2022-09-23T05:06:49.275Z,11.20
2022-09-23T05:09:17.746Z,11.60
2022-09-23T05:11:45.533Z,13.10
2022-09-23T05:14:13.007Z,14.73
2022-09-23T05:16:40.291Z,11.07
2022-09-23T05:19:07.470Z,12.73
2022-09-23T05:21:35.219Z,13.00
2022-09-23T05:24:02.530Z,17.83
2022-09-23T05:26:31.959Z,15.73
2022-09-23T05:29:00.344Z,16.50
2022-09-23T05:31:30.392Z,16.50
2022-09-23T05:34:03.498Z,13.90
2022-09-23T05:36:37.809Z,12.50
2022-09-23T05:39:07.965Z,13.10
2022-09-23T05:41:35.349Z,11.30
2022-09-23T05:44:02.712Z,10.67
2022-09-23T05:46:31.281Z,11.83
2022-09-23T05:49:02.932Z,15.90
2022-09-23T05:51:31.600Z,15.20
2022-09-23T05:54:00.435Z,15.50
2022-09-23T05:56:29.089Z,11.83
2022-09-23T05:58:58.639Z,13.47
2022-09-23T06:01:32.179Z,14.17
2022-09-23T06:04:00.977Z,13.00
2022-09-23T06:06:31.382Z,14.27
2022-09-23T06:08:59.366Z,12.57
2022-09-23T06:11:27.695Z,16.57
2022-09-23T06:14:01.037Z,14.27
2022-09-23T06:16:30.733Z,15.37
2022-09-23T06:19:03.059Z,10.97
2022-09-23T06:21:37.787Z,16.20
2022-09-23T06:24:06.395Z,15.23
2022-09-23T06:26:34.956Z,17.93
2022-09-23T06:29:03.494Z,10.93
2022-09-23T06:31:30.900Z,17.43
2022-09-23T06:34:07.612Z,18.00
2022-09-23T06:36:43.473Z,15.00
2022-09-23T06:39:11.596Z,14.43
2022-09-23T06:41:39.205Z,11.03
2022-09-23T06:44:06.228Z,13.67
2022-09-23T06:46:33.580Z,13.53
2022-09-23T06:49:02.090Z,16.50
2022-09-23T06:51:28.999Z,11.50
2022-09-23T06:53:55.955Z,13.47
2022-09-23T06:56:23.737Z,45.60
2022-09-23T06:58:52.638Z,21.73
2022-09-23T07:01:20.087Z,44.20
2022-09-23T07:03:48.519Z,51.23
2022-09-23T07:06:17.127Z,29.37
2022-09-23T07:08:47.222Z,54.03
2022-09-23T07:11:15.599Z,35.90
2022-09-23T07:13:43.389Z,35.20
2022-09-23T07:16:11.732Z,31.17
2022-09-23T07:18:39.144Z,44.10
2022-09-23T07:21:18.013Z,37.07
2022-09-23T07:23:47.821Z,25.97
2022-09-23T07:26:17.228Z,18.00
2022-09-23T07:28:44.173Z,22.70
2022-09-23T07:31:25.097Z,16.37
2022-09-23T07:34:01.326Z,12.23
2022-09-23T07:36:31.419Z,13.30
2022-09-23T07:39:03.467Z,10.83
2022-09-23T07:41:32.228Z,17.50
2022-09-23T07:44:00.660Z,11.53
2022-09-23T07:46:34.356Z,20.70
2022-09-23T07:49:03.141Z,15.17
2022-09-23T07:51:36.430Z,16.80
2022-09-23T07:54:11.146Z,15.33
2022-09-23T07:56:38.975Z,14.50
2022-09-23T07:59:08.893Z,15.90
2022-09-23T08:01:41.401Z,15.10
2022-09-23T08:04:21.680Z,15.93
2022-09-23T08:06:53.522Z,12.40
2022-09-23T08:09:24.667Z,12.07
2022-09-23T08:11:52.888Z,19.95
2022-09-23T08:14:22.317Z,15.80
2022-09-23T08:16:49.787Z,12.38
2022-09-23T08:19:17.098Z,14.60
2022-09-23T08:21:46.645Z,20.85
2022-09-23T08:24:17.983Z,12.85
2022-09-23T08:26:47.333Z,17.58
2022-09-23T08:29:19.124Z,12.23
2022-09-23T08:31:46.810Z,12.32
2022-09-23T08:34:14.048Z,17.63
2022-09-23T08:36:41.041Z,11.75
2022-09-23T08:39:07.964Z,13.85
2022-09-23T08:41:58.499Z,14.93
2022-09-23T08:44:45.458Z,19.75
2022-09-23T08:47:22.917Z,12.32
2022-09-23T08:50:01.586Z,14.45
2022-09-23T08:52:42.995Z,14.18
2022-09-23T08:55:13.991Z,18.50
2022-09-23T08:58:26.271Z,17.10
2022-09-23T09:01:13.360Z,12.68
2022-09-23T09:03:53.768Z,18.47
2022-09-23T09:06:52.483Z,14.70
2022-09-23T09:09:57.276Z,16.13
2022-09-23T09:12:45.854Z,18.35
2022-09-23T09:15:19.654Z,16.00
2022-09-23T09:18:19.977Z,18.33
2022-09-23T09:21:13.006Z,17.20
2022-09-23T09:24:00.445Z,15.82
2022-09-23T09:26:34.146Z,11.82
2022-09-23T09:29:23.313Z,16.98
2022-09-23T09:31:51.265Z,16.58
2022-09-23T09:34:46.648Z,19.58
2022-09-23T09:37:19.223Z,12.73
2022-09-23T09:39:46.247Z,14.70
2022-09-23T09:42:39.915Z,15.30
2022-09-23T09:45:57.770Z,15.68
2022-09-23T09:48:40.915Z,12.85
2022-09-23T09:51:27.780Z,18.00
2022-09-23T09:53:56.904Z,19.48
2022-09-23T09:56:36.139Z,16.70
2022-09-23T09:59:11.485Z,16.42
2022-09-23T10:01:38.976Z,16.25
2022-09-23T10:04:22.609Z,13.90
2022-09-23T10:07:05.984Z,15.20
2022-09-23T10:09:39.103Z,9.60
2022-09-23T10:12:18.404Z,12.35
2022-09-23T10:14:51.306Z,17.08
2022-09-23T10:17:36.154Z,12.43
2022-09-23T10:20:15.148Z,12.77
2022-09-23T10:22:43.268Z,14.93
2022-09-23T10:25:19.931Z,10.88
2022-09-23T10:27:47.150Z,13.57
2022-09-23T10:30:23.597Z,10.45
2022-09-23T10:32:54.964Z,12.23
2022-09-23T10:35:24.962Z,11.40
2022-09-23T10:38:00.368Z,10.60
2022-09-23T10:40:51.783Z,10.52
2022-09-23T10:44:28.221Z,11.63
2022-09-23T10:47:27.157Z,12.80
2022-09-23T10:50:34.387Z,10.27
2022-09-23T10:53:25.999Z,9.13
2022-09-23T10:56:17.616Z,10.90
2022-09-23T10:58:47.756Z,13.63
2022-09-23T11:01:39.980Z,16.95
2022-09-23T11:04:32.830Z,16.17
2022-09-23T11:07:25.939Z,15.13
2022-09-23T11:10:46.006Z,14.57
2022-09-23T11:13:24.592Z,10.38
2022-09-23T11:15:57.890Z,15.30
2022-09-23T11:18:57.947Z,13.00
2022-09-23T11:21:33.731Z,15.02
2022-09-23T11:24:25.452Z,16.80
2022-09-23T11:27:14.980Z,11.60
2022-09-23T11:30:13.122Z,14.13
2022-09-23T11:33:17.856Z,17.08
2022-09-23T11:35:52.577Z,13.05
2022-09-23T11:38:28.143Z,17.98
2022-09-23T11:41:34.548Z,12.05
2022-09-23T11:44:32.306Z,13.73
2022-09-23T11:47:15.769Z,18.15
2022-09-23T11:50:14.894Z,14.43
2022-09-23T11:52:58.766Z,18.45
2022-09-23T11:55:32.440Z,17.00
2022-09-23T11:58:22.300Z,15.45
2022-09-23T12:01:13.374Z,12.57
2022-09-23T12:04:26.128Z,15.35
2022-09-23T12:07:13.748Z,11.77
2022-09-23T12:10:07.597Z,15.45
2022-09-23T12:12:56.038Z,13.40
2022-09-23T12:15:54.115Z,16.92
2022-09-23T12:18:35.942Z,12.98
2022-09-23T12:21:50.763Z,15.45
2022-09-23T12:24:55.759Z,16.92
2022-09-23T12:27:43.853Z,17.48
2022-09-23T12:30:25.268Z,18.08
2022-09-23T12:32:52.724Z,14.30
2022-09-23T12:35:37.714Z,12.63
2022-09-23T12:38:15.519Z,16.95
2022-09-23T12:40:44.788Z,16.67
2022-09-23T12:43:35.740Z,13.80
2022-09-23T12:46:26.063Z,17.23
2022-09-23T12:48:59.443Z,9.73
2022-09-23T12:51:36.817Z,14.48
2022-09-23T12:54:03.662Z,13.75
2022-09-23T12:56:36.459Z,8.02
2022-09-23T12:59:26.599Z,13.48
2022-09-23T13:01:54.783Z,14.48
2022-09-23T13:05:21.418Z,13.25
2022-09-23T13:07:50.212Z,13.43
2022-09-23T13:10:32.306Z,16.58
2022-09-23T13:13:02.401Z,14.90
2022-09-23T13:15:33.112Z,15.13
2022-09-23T13:18:18.867Z,14.43
2022-09-23T13:20:56.877Z,17.85
2022-09-23T13:23:33.614Z,12.73
2022-09-23T13:26:10.095Z,12.60
2022-09-23T13:28:55.148Z,12.25
2022-09-23T13:31:22.346Z,13.52
2022-09-23T13:34:00.866Z,14.45
2022-09-23T13:36:27.858Z,10.10
2022-09-23T13:39:24.582Z,9.65
2022-09-23T13:41:55.488Z,12.95
2022-09-23T13:44:23.652Z,16.70
2022-09-23T13:47:00.023Z,21.27
2022-09-23T13:49:35.294Z,17.50
2022-09-23T13:52:03.811Z,16.20
2022-09-23T13:54:46.744Z,9.77
2022-09-23T13:57:33.985Z,11.55
2022-09-23T14:00:17.067Z,11.73
2022-09-23T14:02:44.524Z,13.43
2022-09-23T14:05:13.613Z,17.42
2022-09-23T14:07:40.628Z,11.05
2022-09-23T14:10:08.262Z,10.95
2022-09-23T14:12:39.526Z,11.48
2022-09-23T14:15:17.578Z,11.80
2022-09-23T14:17:54.903Z,8.93
2022-09-23T14:20:23.361Z,12.65
2022-09-23T14:23:09.711Z,12.80
2022-09-23T14:25:36.955Z,12.10
2022-09-23T14:28:04.884Z,12.23
2022-09-23T14:30:32.168Z,12.25
2022-09-23T14:32:59.860Z,9.50
2022-09-23T14:35:42.642Z,9.77
2022-09-23T14:38:28.392Z,7.60
2022-09-23T14:41:17.196Z,10.88
2022-09-23T14:43:58.909Z,16.17
2022-09-23T14:46:34.147Z,9.23
2022-09-23T14:49:19.369Z,10.50
2022-09-23T14:51:53.268Z,15.18
2022-09-23T14:54:35.786Z,13.05
2022-09-23T14:57:24.113Z,12.50
2022-09-23T14:59:56.119Z,16.00
2022-09-23T15:03:00.192Z,14.90
2022-09-23T15:05:44.606Z,12.57
2022-09-23T15:08:21.308Z,10.82
2022-09-23T15:10:49.269Z,14.85
2022-09-23T15:13:28.358Z,18.40
2022-09-23T15:15:57.090Z,16.35
2022-09-23T15:18:28.792Z,17.65
2022-09-23T15:21:02.796Z,16.08
2022-09-23T15:23:41.761Z,15.15
2022-09-23T15:26:17.165Z,12.00
2022-09-23T15:28:45.604Z,17.95
2022-09-23T15:31:17.496Z,16.10
2022-09-23T15:33:47.519Z,13.73
2022-09-23T15:36:25.518Z,14.88
2022-09-23T15:38:53.417Z,17.33
2022-09-23T15:41:22.038Z,15.70
2022-09-23T15:43:48.947Z,15.10
2022-09-23T15:46:28.449Z,19.40
2022-09-23T15:49:06.329Z,18.05
2022-09-23T15:51:34.557Z,16.67
2022-09-23T15:54:01.499Z,19.13
2022-09-23T15:56:28.399Z,15.23
2022-09-23T15:58:55.373Z,21.13
2022-09-23T16:01:35.873Z,21.77
2022-09-23T16:04:04.488Z,15.77
2022-09-23T16:06:32.169Z,19.80
2022-09-23T16:08:59.139Z,17.77
2022-09-23T16:11:31.758Z,24.73
2022-09-23T16:14:00.731Z,14.75
2022-09-23T16:16:28.467Z,19.38
2022-09-23T16:18:55.584Z,19.02
2022-09-23T16:21:26.232Z,18.65
2022-09-23T16:23:54.737Z,18.63
2022-09-23T16:26:32.089Z,17.63
2022-09-23T16:28:59.818Z,19.48
2022-09-23T16:31:29.689Z,17.92
2022-09-23T16:33:57.895Z,17.23
2022-09-23T16:36:28.920Z,17.63
2022-09-23T16:38:57.041Z,19.02
2022-09-23T16:41:26.367Z,24.50
2022-09-23T16:43:53.626Z,19.02
2022-09-23T16:46:21.147Z,16.88
2022-09-23T16:48:52.376Z,21.42
2022-09-23T16:51:40.365Z,36.65
2022-09-23T16:54:11.496Z,31.52
2022-09-23T16:56:45.381Z,23.90
2022-09-23T16:59:14.549Z,20.77
2022-09-23T17:02:00.389Z,18.20
2022-09-23T17:04:30.046Z,22.15
2022-09-23T17:06:57.349Z,26.88
2022-09-23T17:09:27.679Z,20.95
2022-09-23T17:12:21.553Z,26.23
2022-09-23T17:14:48.628Z,21.67
2022-09-23T17:17:15.554Z,18.95
2022-09-23T17:19:42.547Z,25.42
2022-09-23T17:22:09.949Z,21.63
2022-09-23T17:24:36.901Z,19.13
2022-09-23T17:27:03.901Z,18.60
2022-09-23T17:29:30.825Z,19.90
2022-09-23T17:31:58.187Z,22.33
2022-09-23T17:34:25.225Z,20.60
2022-09-23T17:36:52.124Z,16.75
2022-09-23T17:39:19.020Z,16.30
2022-09-23T17:41:46.042Z,22.25
2022-09-23T17:44:13.060Z,21.90
2022-09-23T17:46:40.012Z,22.00
2022-09-23T17:49:08.406Z,22.17
2022-09-23T17:51:35.658Z,16.60
2022-09-23T17:54:02.566Z,15.27
2022-09-23T17:56:33.930Z,14.15
2022-09-23T17:59:02.289Z,23.70
2022-09-23T18:01:29.532Z,18.70
2022-09-23T18:04:00.054Z,19.92
2022-09-23T18:06:33.186Z,21.75
2022-09-23T18:09:04.083Z,19.40
2022-09-23T18:11:34.957Z,22.33
2022-09-23T18:14:05.799Z,21.92
2022-09-23T18:16:39.525Z,19.98
2022-09-23T18:19:12.005Z,19.60
2022-09-23T18:21:42.876Z,17.60
2022-09-23T18:24:31.364Z,19.03
2022-09-23T18:26:59.991Z,26.52
2022-09-23T18:29:27.492Z,24.60
2022-09-23T18:31:54.681Z,27.07
2022-09-23T18:34:21.829Z,18.83
2022-09-23T18:36:48.804Z,18.50
2022-09-23T18:39:15.869Z,19.73
2022-09-23T18:41:42.840Z,23.08
2022-09-23T18:44:10.182Z,16.90
2022-09-23T18:46:37.570Z,21.90
2022-09-23T18:49:23.123Z,23.85
2022-09-23T18:51:52.449Z,22.83
2022-09-23T18:54:20.158Z,19.10
2022-09-23T18:56:47.567Z,22.63
2022-09-23T18:59:20.408Z,24.80
2022-09-23T19:01:49.711Z,42.87
2022-09-23T19:04:19.662Z,26.33
2022-09-23T19:06:47.598Z,23.33
2022-09-23T19:09:16.608Z,20.20
2022-09-23T19:11:44.445Z,20.17
2022-09-23T19:14:13.065Z,18.73
2022-09-23T19:16:41.693Z,20.20
2022-09-23T19:19:12.582Z,23.15
2022-09-23T19:21:39.527Z,22.47
2022-09-23T19:24:08.211Z,20.45
2022-09-23T19:26:39.563Z,18.73
2022-09-23T19:29:13.860Z,19.97
2022-09-23T19:31:42.162Z,24.03
2022-09-23T19:34:18.581Z,21.20
2022-09-23T19:36:47.716Z,24.03
2022-09-23T19:39:24.331Z,23.03
2022-09-23T19:41:54.589Z,23.90
2022-09-23T19:44:23.859Z,22.37
2022-09-23T19:46:55.964Z,21.67
2022-09-23T19:49:24.694Z,21.97
2022-09-23T19:51:55.456Z,22.80
2022-09-23T19:54:23.223Z,23.53
2022-09-23T19:56:50.446Z,22.17
2022-09-23T19:59:19.482Z,21.37
2022-09-23T20:01:48.436Z,23.90
2022-09-23T20:04:16.492Z,24.07
2022-09-23T20:06:43.807Z,23.13
2022-09-23T20:09:10.903Z,24.40
2022-09-23T20:11:38.124Z,24.27
2022-09-23T20:14:06.441Z,23.27
2022-09-23T20:16:36.851Z,24.33
2022-09-23T20:19:04.872Z,27.43
2022-09-23T20:21:33.558Z,26.23
2022-09-23T20:24:01.272Z,24.27
2022-09-23T20:26:47.170Z,23.93
2022-09-23T20:29:14.135Z,25.53
2022-09-23T20:31:41.599Z,25.03
2022-09-23T20:34:10.369Z,28.40
2022-09-23T20:36:39.998Z,27.20
2022-09-23T20:39:07.414Z,26.93
2022-09-23T20:41:37.736Z,29.03
2022-09-23T20:44:09.527Z,28.00
2022-09-23T20:46:36.679Z,27.93
2022-09-23T20:49:04.570Z,28.63
2022-09-23T20:51:34.940Z,33.20
2022-09-23T20:54:02.007Z,34.57
2022-09-23T20:56:29.351Z,33.67
2022-09-23T20:59:04.216Z,34.73
2022-09-23T21:01:36.480Z,36.07
2022-09-23T21:04:05.813Z,33.43
2022-09-23T21:06:36.562Z,33.07
2022-09-23T21:09:04.879Z,33.40
2022-09-23T21:11:32.216Z,31.13
2022-09-23T21:14:01.205Z,34.73
2022-09-23T21:16:29.092Z,34.87
2022-09-23T21:18:56.354Z,33.93
2022-09-23T21:21:23.334Z,31.40
2022-09-23T21:23:51.323Z,27.47
2022-09-23T21:26:21.737Z,27.77
2022-09-23T21:28:51.775Z,32.60
2022-09-23T21:31:25.733Z,30.63
2022-09-23T21:34:07.365Z,30.57
2022-09-23T21:36:40.091Z,28.17
2022-09-23T21:39:09.272Z,29.40
2022-09-23T21:41:37.474Z,33.60
2022-09-23T21:44:06.549Z,29.70
2022-09-23T21:46:35.438Z,32.40
2022-09-23T21:49:04.093Z,29.03
2022-09-23T21:51:40.371Z,30.50
2022-09-23T21:54:16.808Z,29.93
2022-09-23T21:56:44.933Z,31.23
2022-09-23T21:59:12.067Z,29.77
2022-09-23T22:01:44.415Z,32.03
2022-09-23T22:04:17.755Z,33.03
2022-09-23T22:06:46.197Z,37.53
2022-09-23T22:09:17.400Z,34.87
2022-09-23T22:12:03.293Z,30.73
2022-09-23T22:14:30.678Z,36.97
2022-09-23T22:17:03.772Z,37.53
2022-09-23T22:19:35.534Z,35.80
2022-09-23T22:22:07.699Z,32.60
2022-09-23T22:24:34.727Z,32.67
2022-09-23T22:27:01.832Z,38.67
2022-09-23T22:29:47.105Z,39.70
2022-09-23T22:32:32.271Z,39.53
2022-09-23T22:34:59.338Z,37.70
2022-09-23T22:37:30.478Z,36.57
2022-09-23T22:39:57.510Z,37.37
2022-09-23T22:42:24.994Z,33.97
2022-09-23T22:44:52.478Z,35.67
2022-09-23T22:47:20.350Z,34.83
2022-09-23T22:49:48.066Z,33.07
2022-09-23T22:52:21.207Z,33.60
2022-09-23T22:54:48.293Z,37.23
2022-09-23T22:57:15.351Z,44.33
2022-09-23T22:59:43.869Z,42.00
2022-09-23T23:02:10.842Z,39.63
2022-09-23T23:04:37.846Z,39.27
2022-09-23T23:07:06.083Z,34.60
2022-09-23T23:09:33.260Z,37.30
2022-09-23T23:12:00.285Z,34.37
2022-09-23T23:14:27.936Z,35.77
2022-09-23T23:16:55.095Z,33.87
2022-09-23T23:19:22.158Z,31.73
2022-09-23T23:21:50.734Z,29.43
2022-09-23T23:24:23.169Z,29.03
2022-09-23T23:26:51.652Z,26.27
2022-09-23T23:29:21.373Z,24.30
2022-09-23T23:31:49.040Z,24.93
2022-09-23T23:34:25.299Z,25.10
2022-09-23T23:36:55.283Z,23.50
2022-09-23T23:39:24.855Z,23.00
2022-09-23T23:41:56.372Z,20.37
2022-09-23T23:44:25.704Z,23.27
2022-09-23T23:46:54.145Z,22.20
2022-09-23T23:49:21.677Z,23.93
2022-09-23T23:51:48.832Z,22.87
2022-09-23T23:54:16.288Z,22.93
2022-09-23T23:56:43.562Z,22.90
2022-09-23T23:59:10.543Z,23.70
